首页
METAR-TAF:

METAR-TAF

机场 :

Gatlinburg, 田纳西州, 美国

纬度: 35-51-28N, 经度: 083-31-43W, 海拔: 309米

当前天气观测

该预报发布于30分钟前的00:15 UTC
静风
温度 20°C
湿度 53%
气压 1013 hPa
能見度: 16.1公里
多云层高于5500英尺
阴天层高于7000英尺

METAR: KGKT 160015Z AUTO 00000KT 10SM BKN055 OVC070 20/10 A2992 RMK A01

时间: 19:45 (00:45 UTC)


TAF: 丢失

超过4000个机场的气象观测和天气预报(METAR&TAF报告)。

可查询的气象台以黄色和红色小点在地图上表示。

将鼠标移到小点上方,可查看气象台名称。

然后点击查看天气观测和预报。

如需切换地图:点击带黑十字的绿色按钮放大地图;点击带横线的绿色按钮缩小地图;或者点击绿色箭头查看邻近地区的地图。


METAR-TAF: